createdAt,value
2022-12-08T00:05:05.635Z,98155.66
2022-12-08T00:10:46.749Z,98166.41
2022-12-08T00:15:38.957Z,98157.50
2022-12-08T00:20:43.874Z,98151.44
2022-12-08T00:25:52.076Z,98151.41
2022-12-08T00:30:57.001Z,98146.44
2022-12-08T00:36:02.079Z,98134.91
2022-12-08T00:41:12.540Z,98144.09
2022-12-08T00:46:17.657Z,98134.34
2022-12-08T00:51:22.639Z,98134.09
2022-12-08T00:56:31.089Z,98135.69
2022-12-08T01:01:39.587Z,98135.94
2022-12-08T01:06:44.972Z,98140.91
2022-12-08T01:11:53.576Z,98136.47
2022-12-08T01:17:00.907Z,98140.41
2022-12-08T01:22:07.326Z,98137.81
2022-12-08T01:27:18.339Z,98134.63
2022-12-08T01:32:24.462Z,98140.94
2022-12-08T01:37:29.496Z,98133.56
2022-12-08T01:42:38.465Z,98136.97
2022-12-08T01:47:46.824Z,98129.88
2022-12-08T01:52:54.607Z,98117.00
2022-12-08T01:58:06.195Z,98111.78
2022-12-08T02:03:19.368Z,98099.63
2022-12-08T02:08:26.107Z,98100.19
2022-12-08T02:13:35.264Z,98101.22
2022-12-08T02:19:29.107Z,98105.44
2022-12-08T02:24:33.042Z,98096.75
2022-12-08T02:30:00.690Z,98090.19
2022-12-08T02:35:14.943Z,98092.81
2022-12-08T02:40:26.598Z,98089.91
2022-12-08T02:45:36.950Z,98088.88
2022-12-08T02:50:45.255Z,98083.31
2022-12-08T02:56:00.261Z,98074.94
2022-12-08T03:01:22.059Z,98071.78
2022-12-08T03:06:35.430Z,98072.81
2022-12-08T03:11:46.165Z,98065.44
2022-12-08T03:16:57.284Z,98067.03
2022-12-08T03:22:07.744Z,98068.59
2022-12-08T03:27:15.256Z,98062.50
2022-12-08T03:32:26.760Z,98063.38
2022-12-08T03:37:34.505Z,98048.63
2022-12-08T03:42:39.491Z,98048.63
2022-12-08T03:47:44.451Z,98038.63
2022-12-08T03:52:52.395Z,98050.75
2022-12-08T03:57:57.346Z,98044.94
2022-12-08T04:03:04.867Z,98020.00
2022-12-08T04:08:12.611Z,98021.81
2022-12-08T04:13:17.632Z,98016.81
2022-12-08T04:18:23.127Z,98011.84
2022-12-08T04:23:30.646Z,98016.53
2022-12-08T04:28:35.564Z,98011.53
2022-12-08T04:33:40.810Z,98002.84
2022-12-08T04:38:48.497Z,98012.38
2022-12-08T04:43:53.453Z,98011.13
2022-12-08T04:48:58.421Z,98006.88
2022-12-08T04:54:06.118Z,97998.25
2022-12-08T04:59:11.052Z,98000.13
2022-12-08T05:04:15.992Z,97997.78
2022-12-08T05:09:23.462Z,97993.44
2022-12-08T05:14:28.448Z,97997.47
2022-12-08T05:19:33.383Z,98005.88
2022-12-08T05:24:47.023Z,98003.25
2022-12-08T05:29:52.533Z,97990.19
2022-12-08T05:34:58.705Z,97985.13
2022-12-08T05:40:07.158Z,97985.38
2022-12-08T05:45:15.821Z,97976.66
2022-12-08T05:50:20.924Z,97980.06
2022-12-08T05:55:29.740Z,97975.06
2022-12-08T06:00:35.426Z,97989.50
2022-12-08T06:05:41.390Z,97985.25
2022-12-08T06:10:49.317Z,97990.81
2022-12-08T06:15:54.313Z,97981.31
2022-12-08T06:21:05.443Z,97987.38
2022-12-08T06:26:18.170Z,97991.59
2022-12-08T06:31:26.876Z,97989.19
2022-12-08T06:36:32.751Z,97987.34
2022-12-08T06:42:01.969Z,97998.06
2022-12-08T06:47:09.296Z,97995.88
2022-12-08T06:52:15.705Z,97999.38
2022-12-08T06:57:28.189Z,98003.13
2022-12-08T07:02:33.704Z,98001.75
2022-12-08T07:07:39.975Z,97999.09
2022-12-08T07:12:48.769Z,97994.97
2022-12-08T07:17:59.606Z,98008.31
2022-12-08T07:23:05.328Z,98003.13
2022-12-08T07:28:16.471Z,98011.25
2022-12-08T07:33:24.042Z,98006.09
2022-12-08T07:38:30.309Z,98004.53
2022-12-08T07:43:38.314Z,97999.41
2022-12-08T07:48:44.730Z,98004.44
2022-12-08T07:53:54.657Z,98005.66
2022-12-08T07:59:04.286Z,98004.31
2022-12-08T08:04:09.521Z,98009.56
2022-12-08T08:09:26.054Z,98004.72
2022-12-08T08:14:33.694Z,98012.97
2022-12-08T08:19:41.479Z,98020.59
2022-12-08T08:24:46.842Z,98017.25
2022-12-08T08:29:57.451Z,98015.47
2022-12-08T08:35:03.817Z,98014.13
2022-12-08T08:40:13.393Z,98013.22
2022-12-08T08:45:23.301Z,98020.47
2022-12-08T08:50:32.931Z,98012.09
2022-12-08T08:55:46.574Z,98009.97
2022-12-08T09:00:55.040Z,98013.44
2022-12-08T09:06:00.704Z,98011.00
2022-12-08T09:11:07.385Z,98017.03
2022-12-08T09:16:15.537Z,98016.56
2022-12-08T09:21:23.161Z,98014.59
2022-12-08T09:26:31.730Z,98017.59
2022-12-08T09:31:41.988Z,98015.56
2022-12-08T09:36:48.561Z,98009.94
2022-12-08T09:42:00.765Z,98004.28
2022-12-08T09:47:18.964Z,98000.84
2022-12-08T09:52:29.994Z,97997.75
2022-12-08T09:57:35.825Z,97987.69
2022-12-08T10:02:43.647Z,97977.38
2022-12-08T10:07:59.360Z,97976.53
2022-12-08T10:13:14.421Z,97972.75
2022-12-08T10:18:26.473Z,97967.72
2022-12-08T10:23:35.150Z,97963.00
2022-12-08T10:28:45.353Z,97966.63
2022-12-08T10:34:00.803Z,97955.56
2022-12-08T10:39:05.862Z,97961.16
2022-12-08T10:44:13.072Z,97944.63
2022-12-08T10:49:32.323Z,97938.34
2022-12-08T10:54:38.840Z,97942.91
2022-12-08T10:59:45.736Z,97945.44
2022-12-08T11:05:01.189Z,97931.53
2022-12-08T11:10:07.088Z,97930.84
2022-12-08T11:15:19.360Z,97916.16
2022-12-08T11:20:27.265Z,97911.97
2022-12-08T11:25:32.273Z,97909.03
2022-12-08T11:30:45.032Z,97916.06
2022-12-08T11:35:57.350Z,97900.41
2022-12-08T11:41:10.963Z,97898.31
2022-12-08T11:46:26.008Z,97898.56
2022-12-08T11:51:39.856Z,97897.94
2022-12-08T11:56:49.100Z,97884.97
2022-12-08T12:01:54.579Z,97885.19
2022-12-08T12:07:40.533Z,97889.56
2022-12-08T12:18:33.273Z,97895.94
2022-12-08T12:23:42.445Z,97885.06
2022-12-08T12:28:54.899Z,97880.66
2022-12-08T12:34:09.212Z,97873.63
2022-12-08T12:39:18.438Z,97873.47
2022-12-08T12:44:45.998Z,97867.22
2022-12-08T12:49:55.810Z,97859.63
2022-12-08T12:55:27.163Z,97856.19
2022-12-08T13:00:34.761Z,97863.47
2022-12-08T13:05:52.450Z,97856.44
2022-12-08T13:11:03.652Z,97849.22
2022-12-08T13:16:21.749Z,97844.81
2022-12-08T13:21:34.753Z,97845.09
2022-12-08T13:26:47.271Z,97840.97
2022-12-08T13:31:59.619Z,97847.41
2022-12-08T13:37:24.703Z,97845.22
2022-12-08T13:42:38.396Z,97841.81
2022-12-08T13:48:21.708Z,97843.38
2022-12-08T13:54:42.608Z,97836.66
2022-12-08T13:58:44.957Z,97846.59
2022-12-08T14:09:25.023Z,97834.91
2022-12-08T14:15:01.117Z,97832.81
2022-12-08T14:20:02.087Z,97830.63
2022-12-08T14:25:10.220Z,97833.94
2022-12-08T14:30:22.728Z,97848.47
2022-12-08T14:35:32.993Z,97837.47
2022-12-08T14:40:40.324Z,97840.22
2022-12-08T14:45:53.858Z,97838.75
2022-12-08T14:51:18.501Z,97837.75
2022-12-08T14:56:29.882Z,97844.25
2022-12-08T15:01:35.228Z,97846.75
2022-12-08T15:06:49.512Z,97842.59
2022-12-08T15:12:03.506Z,97844.88
2022-12-08T15:17:31.780Z,97849.56
2022-12-08T15:22:39.317Z,97854.19
2022-12-08T15:27:50.437Z,97862.13
2022-12-08T15:32:57.454Z,97868.09
2022-12-08T15:38:04.982Z,97866.06
2022-12-08T15:43:13.157Z,97868.69
2022-12-08T15:48:24.510Z,97871.63
2022-12-08T15:53:33.167Z,97866.81
2022-12-08T15:58:57.714Z,97871.81
2022-12-08T16:09:35.177Z,97868.16
2022-12-08T16:20:08.323Z,97869.28
2022-12-08T16:25:19.424Z,97866.09
2022-12-08T16:30:25.418Z,97871.00
2022-12-08T16:35:33.491Z,97877.59
2022-12-08T16:41:02.531Z,97870.44
2022-12-08T16:46:07.957Z,97871.63
2022-12-08T16:51:26.524Z,97862.38
2022-12-08T16:56:34.792Z,97867.16
2022-12-08T17:01:42.175Z,97856.88
2022-12-08T17:06:47.406Z,97867.91
2022-12-08T17:12:00.271Z,97857.94
2022-12-08T17:17:08.825Z,97860.19
2022-12-08T17:22:14.160Z,97864.41
2022-12-08T17:27:21.698Z,97864.06
2022-12-08T17:32:27.352Z,97878.72
2022-12-08T17:37:35.759Z,97872.50
2022-12-08T17:42:46.201Z,97878.41
2022-12-08T17:47:51.157Z,97875.25
2022-12-08T17:52:56.178Z,97882.09
2022-12-08T17:58:06.412Z,97867.28
2022-12-08T18:03:11.529Z,97877.31
2022-12-08T18:08:16.898Z,97862.63
2022-12-08T18:13:24.667Z,97878.47
2022-12-08T18:18:29.617Z,97870.78
2022-12-08T18:23:34.735Z,97874.88
2022-12-08T18:28:42.683Z,97869.31
2022-12-08T18:33:52.436Z,97875.31
2022-12-08T18:38:57.800Z,97871.91
2022-12-08T18:44:05.301Z,97868.19
2022-12-08T18:49:13.873Z,97860.81
2022-12-08T18:54:22.126Z,97862.72
2022-12-08T18:59:35.692Z,97857.44
2022-12-08T19:04:42.484Z,97857.66
2022-12-08T19:09:47.567Z,97868.25
2022-12-08T19:14:56.863Z,97869.44
2022-12-08T19:20:03.401Z,97870.56
2022-12-08T19:25:09.043Z,97870.06
2022-12-08T19:30:17.714Z,97867.19
2022-12-08T19:35:22.824Z,97870.16
2022-12-08T19:40:40.310Z,97869.22
2022-12-08T19:45:49.064Z,97878.41
2022-12-08T19:50:54.361Z,97862.03
2022-12-08T19:55:59.518Z,97870.09
2022-12-08T20:01:08.565Z,97861.03
2022-12-08T20:06:16.525Z,97874.78
2022-12-08T20:11:22.951Z,97872.25
2022-12-08T20:16:33.147Z,97876.13
2022-12-08T20:21:43.052Z,97878.56
2022-12-08T20:26:48.122Z,97885.09
2022-12-08T20:31:55.761Z,97897.34
2022-12-08T20:37:13.703Z,97894.66
2022-12-08T20:42:20.180Z,97900.50
2022-12-08T20:47:28.011Z,97906.44
2022-12-08T20:52:33.180Z,97910.59
2022-12-08T20:57:40.742Z,97908.66
2022-12-08T21:02:56.280Z,97915.47
2022-12-08T21:08:02.011Z,97913.22
2022-12-08T21:13:08.423Z,97914.56
2022-12-08T21:18:16.340Z,97913.28
2022-12-08T21:23:21.461Z,97920.72
2022-12-08T21:28:26.728Z,97919.31
2022-12-08T21:33:34.520Z,97916.81
2022-12-08T21:38:41.189Z,97919.84
2022-12-08T21:43:46.299Z,97924.59
2022-12-08T21:48:53.900Z,97922.19
2022-12-08T21:53:59.025Z,97928.88
2022-12-08T21:59:04.218Z,97916.81
2022-12-08T22:04:12.583Z,97918.06
2022-12-08T22:09:18.444Z,97920.50
2022-12-08T22:14:25.664Z,97920.69
2022-12-08T22:19:33.696Z,97919.06
2022-12-08T22:24:38.750Z,97923.16
2022-12-08T22:29:43.819Z,97914.75
2022-12-08T22:34:52.681Z,97921.84
2022-12-08T22:39:57.774Z,97925.59
2022-12-08T22:45:05.600Z,97915.59
2022-12-08T22:50:14.932Z,97922.50
2022-12-08T22:55:20.716Z,97920.88
2022-12-08T23:00:25.708Z,97929.88
2022-12-08T23:05:35.457Z,97929.00
2022-12-08T23:10:43.562Z,97920.69
2022-12-08T23:15:48.802Z,97918.34
2022-12-08T23:20:56.680Z,97920.47
2022-12-08T23:26:01.894Z,97917.31
2022-12-08T23:31:10.527Z,97920.44
2022-12-08T23:36:19.950Z,97919.63
2022-12-08T23:41:25.041Z,97927.06
2022-12-08T23:46:31.127Z,97921.38
2022-12-08T23:51:41.440Z,97926.69
2022-12-08T23:56:46.770Z,97919.31
